Time;durP1;ratioP1;P1;durP2;ratioP2;P2;SDS_P1;SDS_P2;PMS_P1;PMS_P2;Temp;Humidity;BMP_temperature;BMP_pressure;BME280_temperature;BME280_humidity;BME280_pressure;Samples;Min_cycle;Max_cycle;Signal;HPM_P1;HPM_P2
2022/02/08 00:01:40;;;;;;;;;;;;;;;;;;5086318;28;19928;-96
2022/02/08 00:04:06;;;;;;;;;;;;;;;;;;5092291;28;19974;-94
2022/02/08 00:06:43;;;;;;;;;;;;;;;;;;5080303;28;19924;-96
2022/02/08 00:09:26;;;;;;;;;;;;;;;;;;5086689;28;19939;-96
2022/02/08 00:11:57;;;;;;;;;;;;;;;;;;5089544;28;19925;-96
2022/02/08 00:14:23;;;;;;;;;;;;;;;;;;5088323;28;19954;-96
2022/02/08 00:16:53;;;;;;;;;;;;;;;;;;5088311;28;19924;-96
2022/02/08 00:19:29;;;;;;;;;;;;;;;;;;5092773;28;19979;-96
2022/02/08 00:22:03;;;;;;;;;;;;;;;;;;5094259;28;19925;-96
2022/02/08 00:24:31;;;;;;;;;;;;;;;;;;5093432;28;20142;-96
2022/02/08 00:26:57;;;;;;;;;;;;;;;;;;5109078;28;19938;-96
2022/02/08 00:29:28;;;;;;;;;;;;;;;;;;5107855;28;19920;-96
2022/02/08 00:32:07;;;;;;;;;;;;;;;;;;5107669;28;19931;-96
2022/02/08 00:34:34;;;;;;;;;;;;;;;;;;5142136;22;19928;-96
2022/02/08 00:37:06;;;;;;;;;;;;;;;;;;5129125;27;19924;-96
2022/02/08 00:39:36;;;;;;;;;;;;;;;;;;5125928;28;19946;-96
2022/02/08 00:42:06;;;;;;;;;;;;;;;;;;5108536;28;19928;-93
2022/02/08 00:44:39;;;;;;;;;;;;;;;;;;5108812;28;20641;-95
2022/02/08 00:47:16;;;;;;;;;;;;;;;;;;5126938;28;19934;-96
2022/02/08 00:49:44;;;;;;;;;;;;;;;;;;5127570;28;19933;-92
2022/02/08 00:52:15;;;;;;;;;;;;;;;;;;5127915;28;19980;-95
2022/02/08 00:54:41;;;;;;;;;;;;;;;;;;5126032;28;19924;-96
2022/02/08 00:57:07;;;;;;;;;;;;;;;;;;5125855;28;19927;-93
2022/02/08 00:59:39;;;;;;;;;;;;;;;;;;5128442;28;19935;-96
2022/02/08 01:02:05;;;;;;;;;;;;;;;;;;5120972;22;19924;-94
2022/02/08 01:04:31;;;;;;;;;;;;;;;;;;5101711;28;20008;-94
2022/02/08 01:06:59;;;;;;;;;;;;;;;;;;5086485;28;19928;-94
2022/02/08 01:09:39;;;;;;;;;;;;;;;;;;5088849;28;20319;-96
2022/02/08 01:12:06;;;;;;;;;;;;;;;;;;5107065;28;19946;-94
2022/02/08 01:14:38;;;;;;;;;;;;;;;;;;5106667;28;19931;-95
2022/02/08 01:17:04;;;;;;;;;;;;;;;;;;5107861;28;19924;-93
2022/02/08 01:19:34;;;;;;;;;;;;;;;;;;5103950;28;19954;-95
2022/02/08 01:22:00;;;;;;;;;;;;;;;;;;5079170;28;19964;-95
2022/02/08 01:24:27;;;;;;;;;;;;;;;;;;5086699;28;19950;-93
2022/02/08 01:27:00;;;;;;;;;;;;;;;;;;5105405;28;19958;-93
2022/02/08 01:29:37;;;;;;;;;;;;;;;;;;5104649;28;19924;-96
2022/02/08 01:32:15;;;;;;;;;;;;;;;;;;5104890;28;19924;-96
2022/02/08 01:34:55;;;;;;;;;;;;;;;;;;5101248;28;19927;-94
2022/02/08 01:37:26;;;;;;;;;;;;;;;;;;5084774;28;19932;-91
2022/02/08 01:40:04;;;;;;;;;;;;;;;;;;5089299;28;19946;-95
2022/02/08 01:42:39;;;;;;;;;;;;;;;;;;5105310;28;20388;-93
2022/02/08 01:45:24;;;;;;;;;;;;;;;;;;5103018;28;19931;-96
2022/02/08 01:48:03;;;;;;;;;;;;;;;;;;5105940;28;19930;-95
2022/02/08 01:50:30;;;;;;;;;;;;;;;;;;5102379;28;19929;-94
2022/02/08 01:52:57;;;;;;;;;;;;;;;;;;5084878;28;19971;-96
2022/02/08 01:55:23;;;;;;;;;;;;;;;;;;5084076;28;19947;-92
2022/02/08 01:57:50;;;;;;;;;;;;;;;;;;5082682;28;19924;-93
2022/02/08 02:00:16;;;;;;;;;;;;;;;;;;5083072;28;19959;-90
2022/02/08 02:02:42;;;;;;;;;;;;;;;;;;5102222;28;19924;-94
2022/02/08 02:05:08;;;;;;;;;;;;;;;;;;5104872;28;19928;-93
2022/02/08 02:07:35;;;;;;;;;;;;;;;;;;5103033;28;19924;-93
2022/02/08 02:10:02;;;;;;;;;;;;;;;;;;5098995;28;19991;-94
2022/02/08 02:12:30;;;;;;;;;;;;;;;;;;5084387;28;20368;-93
2022/02/08 02:15:02;;;;;;;;;;;;;;;;;;5084358;28;21390;-94
2022/02/08 02:17:28;;;;;;;;;;;;;;;;;;5103280;28;19939;-92
2022/02/08 02:19:54;;;;;;;;;;;;;;;;;;5102893;28;19955;-93
2022/02/08 02:22:20;;;;;;;;;;;;;;;;;;5084604;28;19924;-91
2022/02/08 02:24:47;;;;;;;;;;;;;;;;;;5083999;28;19924;-95
2022/02/08 02:27:13;;;;;;;;;;;;;;;;;;5103231;28;19932;-94
2022/02/08 02:29:39;;;;;;;;;;;;;;;;;;5102169;28;19971;-92
2022/02/08 02:32:06;;;;;;;;;;;;;;;;;;5103662;28;19950;-93
2022/02/08 02:34:32;;;;;;;;;;;;;;;;;;5104973;28;19928;-95
2022/02/08 02:37:02;;;;;;;;;;;;;;;;;;5097154;28;20443;-95
2022/02/08 02:39:28;;;;;;;;;;;;;;;;;;5084560;28;19925;-94
2022/02/08 02:41:54;;;;;;;;;;;;;;;;;;5082508;28;19947;-93
2022/02/08 02:44:23;;;;;;;;;;;;;;;;;;5083580;28;19928;-93
2022/02/08 02:46:50;;;;;;;;;;;;;;;;;;5084059;28;19924;-96
2022/02/08 02:49:16;;;;;;;;;;;;;;;;;;5084787;28;20014;-95
2022/02/08 02:51:42;;;;;;;;;;;;;;;;;;5077301;28;19924;-93
2022/02/08 02:54:11;;;;;;;;;;;;;;;;;;5083229;28;19931;-95
2022/02/08 02:56:37;;;;;;;;;;;;;;;;;;5098275;28;19931;-95
2022/02/08 02:59:05;;;;;;;;;;;;;;;;;;5102828;28;19924;-96
2022/02/08 03:01:37;;;;;;;;;;;;;;;;;;5101606;28;19936;-91
2022/02/08 03:04:21;;;;;;;;;;;;;;;;;;5103498;28;19928;-96
2022/02/08 03:20:42;;;;;;;;;;;;;;;;;;5041935;28;19963;-94
2022/02/08 03:23:08;;;;;;;;;;;;;;;;;;5042711;28;19929;-95
2022/02/08 03:25:37;;;;;;;;;;;;;;;;;;5069399;28;19928;-94
2022/02/08 03:28:03;;;;;;;;;;;;;;;;;;5102861;28;19928;-94
2022/02/08 03:30:29;;;;;;;;;;;;;;;;;;5100178;28;19932;-95
2022/02/08 03:32:55;;;;;;;;;;;;;;;;;;5084432;28;19924;-93
2022/02/08 03:35:22;;;;;;;;;;;;;;;;;;5083120;28;20406;-92
2022/02/08 03:37:55;;;;;;;;;;;;;;;;;;5084619;28;20360;-94
2022/02/08 03:40:36;;;;;;;;;;;;;;;;;;5085399;28;19931;-91
2022/02/08 03:43:13;;;;;;;;;;;;;;;;;;5108529;28;19931;-95
2022/02/08 03:45:39;;;;;;;;;;;;;;;;;;5108846;28;19958;-93
2022/02/08 03:48:06;;;;;;;;;;;;;;;;;;5108642;28;19924;-94
2022/02/08 03:50:32;;;;;;;;;;;;;;;;;;5105592;28;20041;-96
2022/02/08 03:52:59;;;;;;;;;;;;;;;;;;5108142;28;19928;-94
2022/02/08 03:55:25;;;;;;;;;;;;;;;;;;5105862;28;19958;-91
2022/02/08 03:57:51;;;;;;;;;;;;;;;;;;5085012;28;19939;-93
2022/02/08 04:00:18;;;;;;;;;;;;;;;;;;5088408;28;19939;-96
2022/02/08 04:02:48;;;;;;;;;;;;;;;;;;5084890;28;19939;-93
2022/02/08 04:05:20;;;;;;;;;;;;;;;;;;5086186;28;19978;-95
2022/02/08 04:07:51;;;;;;;;;;;;;;;;;;5106257;28;19939;-93
2022/02/08 04:10:22;;;;;;;;;;;;;;;;;;5106729;28;19928;-93
2022/02/08 04:12:58;;;;;;;;;;;;;;;;;;5106154;28;19959;-96
2022/02/08 04:34:42;;;;;;;;;;;;;;;;;;5067426;28;20566;-94
2022/02/08 04:37:45;;;;;;;;;;;;;;;;;;5085649;28;19924;-94
2022/02/08 04:43:01;;;;;;;;;;;;;;;;;;5089041;28;19942;-93
2022/02/08 04:45:32;;;;;;;;;;;;;;;;;;5105052;28;20015;-95
2022/02/08 04:48:05;;;;;;;;;;;;;;;;;;5105344;28;19975;-95
2022/02/08 04:50:34;;;;;;;;;;;;;;;;;;5105531;28;19924;-95
2022/02/08 04:53:08;;;;;;;;;;;;;;;;;;5104458;28;19928;-92
2022/02/08 04:55:43;;;;;;;;;;;;;;;;;;5104238;28;19924;-95
2022/02/08 04:58:22;;;;;;;;;;;;;;;;;;5105807;28;19928;-93
2022/02/08 05:01:01;;;;;;;;;;;;;;;;;;5104802;28;19932;-91
2022/02/08 05:37:01;;;;;;;;;;;;;;;;;;5102965;28;19943;-94
2022/02/08 05:42:20;;;;;;;;;;;;;;;;;;5092704;28;20354;-96
2022/02/08 05:44:54;;;;;;;;;;;;;;;;;;5102968;28;19932;-93
2022/02/08 05:47:23;;;;;;;;;;;;;;;;;;5092911;28;19924;-95
2022/02/08 05:50:02;;;;;;;;;;;;;;;;;;5084533;28;19924;-94
2022/02/08 05:52:48;;;;;;;;;;;;;;;;;;5093814;28;19956;-93
2022/02/08 05:55:14;;;;;;;;;;;;;;;;;;5102973;28;19924;-94
2022/02/08 05:57:41;;;;;;;;;;;;;;;;;;5103863;28;19977;-95
2022/02/08 06:00:07;;;;;;;;;;;;;;;;;;5101934;28;19959;-94
2022/02/08 06:02:33;;;;;;;;;;;;;;;;;;5093279;28;19928;-94
2022/02/08 06:04:59;;;;;;;;;;;;;;;;;;5085050;28;19928;-94
2022/02/08 06:07:26;;;;;;;;;;;;;;;;;;5096007;28;19924;-95
2022/02/08 06:09:55;;;;;;;;;;;;;;;;;;5105478;28;19924;-93
2022/02/08 06:12:24;;;;;;;;;;;;;;;;;;5096370;28;19924;-96
2022/02/08 06:14:57;;;;;;;;;;;;;;;;;;5086056;28;19999;-96
2022/02/08 06:17:23;;;;;;;;;;;;;;;;;;5115920;23;20302;-95
2022/02/08 06:19:50;;;;;;;;;;;;;;;;;;5105230;28;19924;-96
2022/02/08 06:22:17;;;;;;;;;;;;;;;;;;5086372;28;19927;-96
2022/02/08 06:24:43;;;;;;;;;;;;;;;;;;5081635;28;19928;-95
2022/02/08 06:27:12;;;;;;;;;;;;;;;;;;5085084;28;20467;-95
2022/02/08 06:29:38;;;;;;;;;;;;;;;;;;5098004;28;19999;-95
2022/02/08 06:32:07;;;;;;;;;;;;;;;;;;5102606;28;19924;-92
2022/02/08 06:34:33;;;;;;;;;;;;;;;;;;5104265;28;20563;-96
2022/02/08 06:37:05;;;;;;;;;;;;;;;;;;5101781;28;19928;-94
2022/02/08 06:39:36;;;;;;;;;;;;;;;;;;5101192;28;19946;-96
2022/02/08 06:42:02;;;;;;;;;;;;;;;;;;5103689;28;19928;-94
2022/02/08 06:44:28;;;;;;;;;;;;;;;;;;5105050;28;19928;-93
2022/02/08 06:46:55;;;;;;;;;;;;;;;;;;5106848;28;19924;-95
2022/02/08 06:49:21;;;;;;;;;;;;;;;;;;5101262;28;20497;-93
2022/02/08 06:51:48;;;;;;;;;;;;;;;;;;5098377;28;19936;-96
2022/02/08 06:54:14;;;;;;;;;;;;;;;;;;5104625;28;19928;-91
2022/02/08 06:56:42;;;;;;;;;;;;;;;;;;5104400;28;19946;-96
2022/02/08 06:59:11;;;;;;;;;;;;;;;;;;5103576;28;19985;-96
2022/02/08 07:01:40;;;;;;;;;;;;;;;;;;5092363;28;19924;-96
2022/02/08 07:04:09;;;;;;;;;;;;;;;;;;5105211;28;20019;-95
2022/02/08 07:06:35;;;;;;;;;;;;;;;;;;5091789;28;19924;-95
2022/02/08 07:09:02;;;;;;;;;;;;;;;;;;5086594;28;19924;-94
2022/02/08 07:11:29;;;;;;;;;;;;;;;;;;5087648;28;19924;-95
2022/02/08 07:13:57;;;;;;;;;;;;;;;;;;5092064;28;19925;-95
2022/02/08 07:16:25;;;;;;;;;;;;;;;;;;5098543;28;20007;-94
2022/02/08 07:18:51;;;;;;;;;;;;;;;;;;5089214;28;20006;-94
2022/02/08 07:21:17;;;;;;;;;;;;;;;;;;5082399;28;19932;-92
2022/02/08 07:23:44;;;;;;;;;;;;;;;;;;5102811;28;19924;-94
2022/02/08 07:26:10;;;;;;;;;;;;;;;;;;5108352;28;19924;-95
2022/02/08 07:28:41;;;;;;;;;;;;;;;;;;5107800;28;19946;-95
2022/02/08 07:31:14;;;;;;;;;;;;;;;;;;5107226;28;19928;-95
2022/02/08 07:33:44;;;;;;;;;;;;;;;;;;5107705;28;19931;-93
2022/02/08 07:36:19;;;;;;;;;;;;;;;;;;5099354;28;19925;-95
2022/02/08 07:38:45;;;;;;;;;;;;;;;;;;5102496;28;19939;-93
2022/02/08 07:43:55;;;;;;;;;;;;;;;;;;5107886;28;19919;-95
2022/02/08 07:46:21;;;;;;;;;;;;;;;;;;5107446;28;19924;-95
2022/02/08 07:48:49;;;;;;;;;;;;;;;;;;5105809;28;19924;-94
2022/02/08 07:51:19;;;;;;;;;;;;;;;;;;5086694;28;19935;-95
2022/02/08 07:53:45;;;;;;;;;;;;;;;;;;5106719;28;19924;-93
2022/02/08 07:56:12;;;;;;;;;;;;;;;;;;5106464;28;20385;-92
2022/02/08 07:58:39;;;;;;;;;;;;;;;;;;5105941;28;19924;-94
2022/02/08 08:01:08;;;;;;;;;;;;;;;;;;5106955;28;20716;-96
2022/02/08 08:03:34;;;;;;;;;;;;;;;;;;5105623;28;19998;-94
2022/02/08 08:06:02;;;;;;;;;;;;;;;;;;5099091;28;19981;-96
2022/02/08 08:08:31;;;;;;;;;;;;;;;;;;5091070;28;19974;-93
2022/02/08 08:11:00;;;;;;;;;;;;;;;;;;5107371;28;19928;-94
2022/02/08 08:13:28;;;;;;;;;;;;;;;;;;5108619;28;19977;-96
2022/02/08 08:16:04;;;;;;;;;;;;;;;;;;5107206;28;19931;-96
2022/02/08 08:18:55;;;;;;;;;;;;;;;;;;5102328;28;19924;-96
2022/02/08 08:21:21;;;;;;;;;;;;;;;;;;5094456;28;19978;-94
2022/02/08 08:23:47;;;;;;;;;;;;;;;;;;5084831;28;19982;-96
2022/02/08 08:26:14;;;;;;;;;;;;;;;;;;5084056;28;19928;-96
2022/02/08 08:28:40;;;;;;;;;;;;;;;;;;5104078;28;19931;-96
2022/02/08 08:31:06;;;;;;;;;;;;;;;;;;5107176;28;19928;-94
2022/02/08 08:33:33;;;;;;;;;;;;;;;;;;5106190;28;19948;-95
2022/02/08 08:36:00;;;;;;;;;;;;;;;;;;5107391;28;19925;-95
2022/02/08 08:38:28;;;;;;;;;;;;;;;;;;5096997;28;19924;-96
2022/02/08 08:41:01;;;;;;;;;;;;;;;;;;5086696;28;19928;-92
2022/02/08 08:43:47;;;;;;;;;;;;;;;;;;5089483;28;19964;-93
2022/02/08 08:49:23;;;;;;;;;;;;;;;;;;5104537;28;19927;-94
2022/02/08 08:51:51;;;;;;;;;;;;;;;;;;5091633;28;20652;-96
2022/02/08 08:54:17;;;;;;;;;;;;;;;;;;5107158;28;19928;-94
2022/02/08 08:56:44;;;;;;;;;;;;;;;;;;5107185;28;19939;-94
2022/02/08 08:59:10;;;;;;;;;;;;;;;;;;5107223;28;20334;-96
2022/02/08 09:01:38;;;;;;;;;;;;;;;;;;5105951;28;19950;-95
2022/02/08 09:04:04;;;;;;;;;;;;;;;;;;5106846;28;19932;-94
2022/02/08 09:06:34;;;;;;;;;;;;;;;;;;5092572;28;19925;-93
2022/02/08 09:09:01;;;;;;;;;;;;;;;;;;5094178;28;19931;-93
2022/02/08 09:11:44;;;;;;;;;;;;;;;;;;5105304;28;19930;-96
2022/02/08 09:14:12;;;;;;;;;;;;;;;;;;5106015;28;19932;-94
2022/02/08 09:16:43;;;;;;;;;;;;;;;;;;5087462;28;19934;-95
2022/02/08 09:22:20;;;;;;;;;;;;;;;;;;5072506;28;19924;-93
2022/02/08 09:25:08;;;;;;;;;;;;;;;;;;5106180;28;19932;-96
2022/02/08 09:28:03;;;;;;;;;;;;;;;;;;5105868;28;20041;-94
2022/02/08 09:30:38;;;;;;;;;;;;;;;;;;5085542;28;19996;-94
2022/02/08 09:33:05;;;;;;;;;;;;;;;;;;5088956;28;19928;-95
2022/02/08 09:35:32;;;;;;;;;;;;;;;;;;5099170;28;19924;-96
2022/02/08 09:37:59;;;;;;;;;;;;;;;;;;5086338;28;20422;-95
2022/02/08 09:40:25;;;;;;;;;;;;;;;;;;5094030;28;19924;-94
2022/02/08 09:42:52;;;;;;;;;;;;;;;;;;5087582;28;19928;-96
2022/02/08 09:45:20;;;;;;;;;;;;;;;;;;5106125;28;20027;-94
2022/02/08 09:47:52;;;;;;;;;;;;;;;;;;5105261;28;19924;-93
2022/02/08 09:50:21;;;;;;;;;;;;;;;;;;5104393;28;19932;-93
2022/02/08 09:52:51;;;;;;;;;;;;;;;;;;5105189;28;20096;-94
2022/02/08 09:55:17;;;;;;;;;;;;;;;;;;5086240;28;20276;-94
2022/02/08 09:57:43;;;;;;;;;;;;;;;;;;5086944;28;19982;-95
2022/02/08 10:00:09;;;;;;;;;;;;;;;;;;5106243;28;19946;-96
2022/02/08 10:02:41;;;;;;;;;;;;;;;;;;5106569;28;19946;-95
2022/02/08 10:05:08;;;;;;;;;;;;;;;;;;5106523;28;19970;-96
2022/02/08 10:07:35;;;;;;;;;;;;;;;;;;5106414;28;19935;-96
2022/02/08 10:10:02;;;;;;;;;;;;;;;;;;5107243;28;19951;-93
2022/02/08 10:12:32;;;;;;;;;;;;;;;;;;5128491;23;19923;-96
2022/02/08 10:23:17;;;;;;;;;;;;;;;;;;5081354;28;19931;-94
2022/02/08 10:25:49;;;;;;;;;;;;;;;;;;5084416;28;19928;-96
2022/02/08 10:28:28;;;;;;;;;;;;;;;;;;5128412;27;19927;-95
2022/02/08 10:39:11;;;;;;;;;;;;;;;;;;5136629;27;19966;-95
2022/02/08 10:41:37;;;;;;;;;;;;;;;;;;5125847;28;20619;-96
2022/02/08 10:44:04;;;;;;;;;;;;;;;;;;5134865;28;19930;-94
2022/02/08 10:46:32;;;;;;;;;;;;;;;;;;5145741;27;19928;-95
2022/02/08 10:48:58;;;;;;;;;;;;;;;;;;5138554;28;19997;-96
2022/02/08 10:51:26;;;;;;;;;;;;;;;;;;5135385;28;19949;-96
2022/02/08 10:53:59;;;;;;;;;;;;;;;;;;5144891;28;19998;-94
2022/02/08 10:56:29;;;;;;;;;;;;;;;;;;5143193;28;19923;-94
2022/02/08 10:59:09;;;;;;;;;;;;;;;;;;5131267;28;19945;-94
2022/02/08 11:01:45;;;;;;;;;;;;;;;;;;5145222;28;19927;-96
2022/02/08 11:04:18;;;;;;;;;;;;;;;;;;5135571;28;19969;-96
2022/02/08 11:06:49;;;;;;;;;;;;;;;;;;5137465;28;19947;-95
2022/02/08 11:09:26;;;;;;;;;;;;;;;;;;5136972;28;19931;-96
2022/02/08 11:12:01;;;;;;;;;;;;;;;;;;5124763;28;19946;-93
2022/02/08 11:14:40;;;;;;;;;;;;;;;;;;5135283;28;19928;-96
2022/02/08 11:20:00;;;;;;;;;;;;;;;;;;5099650;28;19945;-95
2022/02/08 11:22:39;;;;;;;;;;;;;;;;;;5125668;27;19934;-96
2022/02/08 11:25:13;;;;;;;;;;;;;;;;;;5139728;28;19950;-92
2022/02/08 11:27:40;;;;;;;;;;;;;;;;;;5130083;28;19924;-96
2022/02/08 11:30:12;;;;;;;;;;;;;;;;;;5138012;28;19963;-93
2022/02/08 11:32:52;;;;;;;;;;;;;;;;;;5143393;28;19953;-95
2022/02/08 11:43:51;;;;;;;;;;;;;;;;;;5122765;28;19946;-93
2022/02/08 11:46:27;;;;;;;;;;;;;;;;;;5143120;27;19938;-91
2022/02/08 11:49:25;;;;;;;;;;;;;;;;;;5139119;27;19952;-91
2022/02/08 11:51:58;;;;;;;;;;;;;;;;;;5135147;28;20581;-92
2022/02/08 11:54:54;;;;;;;;;;;;;;;;;;5142975;28;20085;-94
2022/02/08 12:00:22;;;;;;;;;;;;;;;;;;5134238;27;19974;-95
2022/02/08 12:03:02;;;;;;;;;;;;;;;;;;5125647;28;19979;-93
2022/02/08 12:05:37;;;;;;;;;;;;;;;;;;5128695;27;19949;-92
2022/02/08 12:08:04;;;;;;;;;;;;;;;;;;5145833;27;19945;-91
2022/02/08 12:10:37;;;;;;;;;;;;;;;;;;5146592;27;19923;-95
2022/02/08 12:13:24;;;;;;;;;;;;;;;;;;5144594;27;19927;-92
2022/02/08 12:52:28;;;;;;;;;;;;;;;;;;5124425;28;19930;-94
2022/02/08 12:55:00;;;;;;;;;;;;;;;;;;5124270;28;20497;-95
2022/02/08 13:03:02;;;;;;;;;;;;;;;;;;5123383;28;19938;-94
2022/02/08 13:05:56;;;;;;;;;;;;;;;;;;5125829;27;19945;-94
2022/02/08 14:03:53;;;;;;;;;;;;;;;;;;5091579;28;19938;-94
2022/02/08 14:06:22;;;;;;;;;;;;;;;;;;5130832;27;20469;-96
2022/02/08 14:09:11;;;;;;;;;;;;;;;;;;5145491;27;19926;-96
2022/02/08 14:11:57;;;;;;;;;;;;;;;;;;5143207;27;19996;-94
2022/02/08 14:19:51;;;;;;;;;;;;;;;;;;5120053;28;19938;-93
2022/02/08 14:22:31;;;;;;;;;;;;;;;;;;5121669;28;19975;-93
2022/02/08 14:25:21;;;;;;;;;;;;;;;;;;5125198;27;19941;-93
2022/02/08 14:30:38;;;;;;;;;;;;;;;;;;5130449;27;19923;-93
2022/02/08 14:33:14;;;;;;;;;;;;;;;;;;5142272;27;19976;-93
2022/02/08 15:00:33;;;;;;;;;;;;;;;;;;5140315;27;19983;-96
2022/02/08 15:06:06;;;;;;;;;;;;;;;;;;5075882;28;19983;-95
2022/02/08 15:08:35;;;;;;;;;;;;;;;;;;5135744;28;19924;-96
2022/02/08 15:11:06;;;;;;;;;;;;;;;;;;5147006;28;20267;-95
2022/02/08 15:13:35;;;;;;;;;;;;;;;;;;5149891;27;19987;-96
2022/02/08 15:16:15;;;;;;;;;;;;;;;;;;5147509;28;19928;-96
2022/02/08 15:18:41;;;;;;;;;;;;;;;;;;5144518;28;19950;-96
2022/02/08 15:21:11;;;;;;;;;;;;;;;;;;5141590;28;19945;-96
2022/02/08 15:23:41;;;;;;;;;;;;;;;;;;5150282;28;19958;-96
2022/02/08 15:26:07;;;;;;;;;;;;;;;;;;5139705;28;20437;-96
2022/02/08 15:28:33;;;;;;;;;;;;;;;;;;5141838;28;19928;-95
2022/02/08 15:30:59;;;;;;;;;;;;;;;;;;5133217;28;19924;-96
2022/02/08 15:33:26;;;;;;;;;;;;;;;;;;5123065;28;19934;-95
2022/02/08 15:35:53;;;;;;;;;;;;;;;;;;5133468;28;19920;-96
2022/02/08 15:38:19;;;;;;;;;;;;;;;;;;5140747;22;19946;-95
2022/02/08 15:40:48;;;;;;;;;;;;;;;;;;5120416;22;20330;-95
2022/02/08 15:43:15;;;;;;;;;;;;;;;;;;5112432;28;19924;-93
2022/02/08 15:45:48;;;;;;;;;;;;;;;;;;5107446;28;19959;-94
2022/02/08 15:48:20;;;;;;;;;;;;;;;;;;5105344;28;20358;-95
2022/02/08 15:50:54;;;;;;;;;;;;;;;;;;5105018;28;19950;-93
2022/02/08 16:07:16;;;;;;;;;;;;;;;;;;5103826;28;19946;-95
2022/02/08 16:12:45;;;;;;;;;;;;;;;;;;5115515;28;19926;-96
2022/02/08 16:15:35;;;;;;;;;;;;;;;;;;5105853;28;20018;-94
2022/02/08 16:18:09;;;;;;;;;;;;;;;;;;5105910;28;19924;-92
2022/02/08 16:26:12;;;;;;;;;;;;;;;;;;5098138;28;19930;-93
2022/02/08 16:28:51;;;;;;;;;;;;;;;;;;5103985;28;21145;-92
2022/02/08 16:31:47;;;;;;;;;;;;;;;;;;5093916;28;19924;-93
2022/02/08 16:53:45;;;;;;;;;;;;;;;;;;5089519;28;20315;-90
2022/02/08 16:58:54;;;;;;;;;;;;;;;;;;5089935;28;19928;-91
2022/02/08 17:01:23;;;;;;;;;;;;;;;;;;5096099;28;19975;-91
2022/02/08 17:03:51;;;;;;;;;;;;;;;;;;5099588;28;19952;-91
2022/02/08 17:06:17;;;;;;;;;;;;;;;;;;5085183;28;19932;-90
2022/02/08 17:08:44;;;;;;;;;;;;;;;;;;5083947;28;20019;-92
2022/02/08 17:11:16;;;;;;;;;;;;;;;;;;5089959;28;19928;-92
2022/02/08 17:14:14;;;;;;;;;;;;;;;;;;5102956;28;19994;-92
2022/02/08 17:16:48;;;;;;;;;;;;;;;;;;5087066;28;19963;-92
2022/02/08 17:46:36;;;;;;;;;;;;;;;;;;5102747;28;20389;-92
2022/02/08 17:49:03;;;;;;;;;;;;;;;;;;5102222;28;19935;-92
2022/02/08 17:51:29;;;;;;;;;;;;;;;;;;5101445;28;19963;-94
2022/02/08 17:53:56;;;;;;;;;;;;;;;;;;5102889;28;19928;-92
2022/02/08 17:56:22;;;;;;;;;;;;;;;;;;5102765;28;19973;-94
2022/02/08 17:58:49;;;;;;;;;;;;;;;;;;5103250;28;19950;-96
2022/02/08 18:01:15;;;;;;;;;;;;;;;;;;5102138;28;20038;-92
2022/02/08 18:03:41;;;;;;;;;;;;;;;;;;5093458;28;19947;-96
2022/02/08 18:06:07;;;;;;;;;;;;;;;;;;5087740;28;19929;-92
2022/02/08 18:08:35;;;;;;;;;;;;;;;;;;5095472;28;19946;-93
2022/02/08 18:11:01;;;;;;;;;;;;;;;;;;5102942;28;19977;-96
2022/02/08 18:13:29;;;;;;;;;;;;;;;;;;5102547;28;19949;-92
2022/02/08 18:15:58;;;;;;;;;;;;;;;;;;5102142;28;19928;-95
2022/02/08 18:18:27;;;;;;;;;;;;;;;;;;5101287;28;19928;-94
2022/02/08 18:20:56;;;;;;;;;;;;;;;;;;5099607;28;19924;-92
2022/02/08 18:23:45;;;;;;;;;;;;;;;;;;5089431;28;19932;-93
2022/02/08 18:56:41;;;;;;;;;;;;;;;;;;5079493;28;19941;-90
2022/02/08 19:07:26;;;;;;;;;;;;;;;;;;5099025;28;19976;-94
2022/02/08 19:10:07;;;;;;;;;;;;;;;;;;5104238;28;19931;-95
2022/02/08 19:12:37;;;;;;;;;;;;;;;;;;5104598;28;19935;-93
2022/02/08 19:15:37;;;;;;;;;;;;;;;;;;5104358;28;19938;-94
2022/02/08 19:21:06;;;;;;;;;;;;;;;;;;5100351;28;19936;-94
2022/02/08 19:23:33;;;;;;;;;;;;;;;;;;5097546;28;19932;-91
2022/02/08 19:25:59;;;;;;;;;;;;;;;;;;5102660;28;19946;-94
2022/02/08 19:28:26;;;;;;;;;;;;;;;;;;5084758;28;19947;-93
2022/02/08 19:30:52;;;;;;;;;;;;;;;;;;5085913;28;19978;-94
2022/02/08 19:33:21;;;;;;;;;;;;;;;;;;5085670;28;20438;-95
2022/02/08 19:35:48;;;;;;;;;;;;;;;;;;5091934;28;19928;-95
2022/02/08 19:38:17;;;;;;;;;;;;;;;;;;5107519;28;19932;-92
2022/02/08 19:40:43;;;;;;;;;;;;;;;;;;5097398;28;19929;-93
2022/02/08 19:43:09;;;;;;;;;;;;;;;;;;5101162;28;19950;-94
2022/02/08 19:45:41;;;;;;;;;;;;;;;;;;5105574;28;19936;-96
2022/02/08 19:48:10;;;;;;;;;;;;;;;;;;5106272;28;19924;-96
2022/02/08 19:50:36;;;;;;;;;;;;;;;;;;5105607;28;19985;-93
2022/02/08 19:53:02;;;;;;;;;;;;;;;;;;5106624;28;19924;-95
2022/02/08 19:55:40;;;;;;;;;;;;;;;;;;5107815;28;19924;-94
2022/02/08 19:58:10;;;;;;;;;;;;;;;;;;5103383;28;19932;-94
2022/02/08 20:00:38;;;;;;;;;;;;;;;;;;5099367;28;19939;-94
2022/02/08 20:03:07;;;;;;;;;;;;;;;;;;5094817;28;19928;-94
2022/02/08 20:05:33;;;;;;;;;;;;;;;;;;5097695;28;19959;-94
2022/02/08 20:07:59;;;;;;;;;;;;;;;;;;5098760;28;20372;-92
2022/02/08 20:10:26;;;;;;;;;;;;;;;;;;5094977;28;20453;-94
2022/02/08 20:12:53;;;;;;;;;;;;;;;;;;5097175;28;19928;-96
2022/02/08 20:15:20;;;;;;;;;;;;;;;;;;5098168;28;20519;-93
2022/02/08 20:17:53;;;;;;;;;;;;;;;;;;5094132;28;19983;-96
2022/02/08 20:20:28;;;;;;;;;;;;;;;;;;5092185;28;19924;-90
2022/02/08 20:22:59;;;;;;;;;;;;;;;;;;5094983;28;19995;-95
2022/02/08 20:25:25;;;;;;;;;;;;;;;;;;5090624;28;19931;-93
2022/02/08 20:27:52;;;;;;;;;;;;;;;;;;5097940;28;19928;-95
2022/02/08 20:30:26;;;;;;;;;;;;;;;;;;5094957;28;19925;-96
2022/02/08 20:32:53;;;;;;;;;;;;;;;;;;5094859;28;19928;-94
2022/02/08 20:35:27;;;;;;;;;;;;;;;;;;5096321;28;19932;-96
2022/02/08 20:37:54;;;;;;;;;;;;;;;;;;5104384;28;19974;-96
2022/02/08 20:40:20;;;;;;;;;;;;;;;;;;5105922;28;19924;-93
2022/02/08 20:42:47;;;;;;;;;;;;;;;;;;5095399;28;19924;-96
2022/02/08 20:45:13;;;;;;;;;;;;;;;;;;5092338;28;19943;-93
2022/02/08 20:47:44;;;;;;;;;;;;;;;;;;5127196;22;19935;-92
2022/02/08 20:50:17;;;;;;;;;;;;;;;;;;5144559;27;19928;-96
2022/02/08 20:52:50;;;;;;;;;;;;;;;;;;5141715;27;19951;-92
2022/02/08 20:55:19;;;;;;;;;;;;;;;;;;5139140;27;19924;-96
2022/02/08 20:57:51;;;;;;;;;;;;;;;;;;5139716;27;19931;-96
2022/02/08 21:00:18;;;;;;;;;;;;;;;;;;5131880;27;19927;-95
2022/02/08 21:02:58;;;;;;;;;;;;;;;;;;5135629;27;19927;-92
2022/02/08 21:05:34;;;;;;;;;;;;;;;;;;5137328;27;19941;-96
2022/02/08 21:08:01;;;;;;;;;;;;;;;;;;5135485;27;19919;-93
2022/02/08 21:10:30;;;;;;;;;;;;;;;;;;5137557;27;19945;-95
2022/02/08 21:13:13;;;;;;;;;;;;;;;;;;5134159;27;19924;-94
2022/02/08 21:15:40;;;;;;;;;;;;;;;;;;5139351;27;19927;-96
2022/02/08 21:18:06;;;;;;;;;;;;;;;;;;5137727;27;19928;-96
2022/02/08 21:20:35;;;;;;;;;;;;;;;;;;5139560;27;19927;-94
2022/02/08 21:23:02;;;;;;;;;;;;;;;;;;5144907;27;19942;-92
2022/02/08 21:25:47;;;;;;;;;;;;;;;;;;5139879;27;19927;-96
2022/02/08 21:28:23;;;;;;;;;;;;;;;;;;5145146;27;19943;-93
2022/02/08 21:31:20;;;;;;;;;;;;;;;;;;5141350;27;19923;-96
2022/02/08 21:47:50;;;;;;;;;;;;;;;;;;5142978;27;19949;-95
2022/02/08 21:53:04;;;;;;;;;;;;;;;;;;5124959;28;20286;-95
2022/02/08 21:55:32;;;;;;;;;;;;;;;;;;5135449;27;20016;-94
2022/02/08 21:58:01;;;;;;;;;;;;;;;;;;5126715;27;19927;-92
2022/02/08 22:00:28;;;;;;;;;;;;;;;;;;5129028;27;19958;-96
2022/02/08 22:02:55;;;;;;;;;;;;;;;;;;5121493;28;19935;-94
2022/02/08 22:05:21;;;;;;;;;;;;;;;;;;5120308;27;19927;-91
2022/02/08 22:08:02;;;;;;;;;;;;;;;;;;5122170;28;19928;-93
2022/02/08 22:15:46;;;;;;;;;;;;;;;;;;5132858;27;19927;-93
2022/02/08 22:16:07;;;;;;;;;;;;;;;;;;5140716;27;19959;-93
2022/02/08 22:18:47;;;;;;;;;;;;;;;;;;5141009;27;19962;-94
2022/02/08 22:21:19;;;;;;;;;;;;;;;;;;5139261;27;20021;-94
2022/02/08 22:23:51;;;;;;;;;;;;;;;;;;5140725;27;19991;-93
2022/02/08 22:26:51;;;;;;;;;;;;;;;;;;5141155;27;19976;-94
2022/02/08 22:29:29;;;;;;;;;;;;;;;;;;5141817;27;19923;-93
2022/02/08 22:32:01;;;;;;;;;;;;;;;;;;5121621;28;19947;-95
2022/02/08 22:34:32;;;;;;;;;;;;;;;;;;5119686;28;19928;-93
2022/02/08 22:37:03;;;;;;;;;;;;;;;;;;5110782;28;19932;-95
2022/02/08 22:39:34;;;;;;;;;;;;;;;;;;5119419;28;19924;-94
2022/02/08 22:42:04;;;;;;;;;;;;;;;;;;5129386;27;19981;-93
2022/02/08 22:44:37;;;;;;;;;;;;;;;;;;5138942;27;19995;-92
2022/02/08 22:47:04;;;;;;;;;;;;;;;;;;5138598;27;19966;-93
2022/02/08 22:49:30;;;;;;;;;;;;;;;;;;5142977;28;19990;-91
2022/02/08 22:51:57;;;;;;;;;;;;;;;;;;5137107;28;19923;-93
2022/02/08 22:54:23;;;;;;;;;;;;;;;;;;5142925;28;19927;-91
2022/02/08 22:56:51;;;;;;;;;;;;;;;;;;5142734;28;19927;-91
2022/02/08 22:59:17;;;;;;;;;;;;;;;;;;5143174;28;20000;-90
2022/02/08 23:01:44;;;;;;;;;;;;;;;;;;5124861;28;19930;-89
2022/02/08 23:04:14;;;;;;;;;;;;;;;;;;5123814;28;19931;-96
2022/02/08 23:06:40;;;;;;;;;;;;;;;;;;5095005;28;19924;-91
2022/02/08 23:09:10;;;;;;;;;;;;;;;;;;5120279;28;19996;-92
2022/02/08 23:11:57;;;;;;;;;;;;;;;;;;5127636;28;19931;-91
2022/02/08 23:14:25;;;;;;;;;;;;;;;;;;5143234;28;19924;-92
2022/02/08 23:36:53;;;;;;;;;;;;;;;;;;5142126;28;19927;-91
2022/02/08 23:38:55;;;;;;;;;;;;;;;;;;5123083;28;19972;-90
2022/02/08 23:41:21;;;;;;;;;;;;;;;;;;5135290;27;19927;-92
2022/02/08 23:43:49;;;;;;;;;;;;;;;;;;5142295;28;19927;-91
2022/02/08 23:46:17;;;;;;;;;;;;;;;;;;5142172;28;19973;-93
2022/02/08 23:48:57;;;;;;;;;;;;;;;;;;5143258;28;19963;-91